Wetterdaten: Woche 27.02.23 - 05.03.23 (KW9)
Datum Zeit Temp. Aussen Temp. o. S. Temp +5cm Feuchte Auss Luftdruck Regen Sonnenschein Regendauer Solar Windben Empfang
27.02.2023 00:00 -0,2 C -2,0 C -5,3 C 78 % 1028,0 hPa 0,0 l/m 0,00 h 0,00 h 0 W/m 0,0 km/h (0 Bft) 99,06 %
27.02.2023 01:00 -1,2 C -2,5 C -5,8 C 81 % 1028,2 hPa 0,0 l/m 0,00 h 0,00 h 0 W/m 0,0 km/h (0 Bft) 95,11 %
27.02.2023 02:00 -1,8 C -3,0 C -6,1 C 84 % 1028,1 hPa 0,0 l/m 0,00 h 0,00 h 0 W/m 0,0 km/h (0 Bft) 95,15 %
27.02.2023 03:00 -2,6 C -3,4 C -6,7 C 85 % 1028,1 hPa 0,0 l/m 0,00 h 0,00 h 0 W/m 0,0 km/h (0 Bft) 99,05 %
27.02.2023 04:00 -2,7 C -3,2 C -6,5 C 88 % 1028,2 hPa 0,0 l/m 0,00 h 0,00 h 0 W/m 0,1 km/h (0 Bft) 98,18 %
27.02.2023 05:00 -2,7 C -3,9 C -6,8 C 89 % 1028,5 hPa 0,0 l/m 0,00 h 0,00 h 0 W/m 0,0 km/h (0 Bft) 97,21 %
27.02.2023 06:00 -3,4 C -4,6 C -7,4 C 89 % 1028,9 hPa 0,0 l/m 0,00 h 0,00 h 0 W/m 0,0 km/h (0 Bft) 96,91 %
27.02.2023 07:00 -4,1 C -4,7 C -7,6 C 90 % 1029,4 hPa 0,0 l/m 0,00 h 0,00 h 10 W/m 0,0 km/h (0 Bft) 95,49 %
27.02.2023 08:00 -3,4 C -2,7 C -6,3 C 92 % 1029,9 hPa 0,0 l/m 0,17 h 0,00 h 52 W/m 0,0 km/h (0 Bft) 98,01 %
27.02.2023 09:00 -0,1 C 4,9 C -3,9 C 92 % 1030,2 hPa 0,0 l/m 0,73 h 0,00 h 179 W/m 6,9 km/h (2 Bft) 95,77 %
27.02.2023 10:00 3,1 C 11,8 C -1,2 C 79 % 1030,3 hPa 0,0 l/m 0,83 h 0,00 h 328 W/m 12,2 km/h (2 Bft) 94,23 %
27.02.2023 11:00 4,8 C 14,8 C 3,3 C 71 % 1030,2 hPa 0,0 l/m 0,90 h 0,00 h 420 W/m 15,1 km/h (3 Bft) 97,72 %
27.02.2023 12:00 4,4 C 7,1 C 0,7 C 71 % 1029,9 hPa 0,0 l/m 0,20 h 0,00 h 257 W/m 14,1 km/h (3 Bft) 96,74 %
27.02.2023 13:00 6,5 C 15,3 C 2,4 C 65 % 1029,4 hPa 0,0 l/m 0,93 h 0,00 h 548 W/m 16,3 km/h (3 Bft) 77,14 %
27.02.2023 14:00 7,1 C 11,8 C 2,6 C 62 % 1028,9 hPa 0,0 l/m 0,97 h 0,00 h 545 W/m 17,4 km/h (3 Bft) 90,19 %
27.02.2023 15:00 6,4 C 8,4 C 1,8 C 62 % 1028,8 hPa 0,0 l/m 0,83 h 0,00 h 306 W/m 19,5 km/h (3 Bft) 98,09 %
27.02.2023 16:00 5,4 C 5,6 C 0,9 C 64 % 1029,0 hPa 0,0 l/m 0,40 h 0,00 h 132 W/m 15,4 km/h (3 Bft) 97,21 %
27.02.2023 17:00 4,4 C 3,7 C -0,2 C 67 % 1029,2 hPa 0,0 l/m 0,00 h 0,00 h 32 W/m 10,6 km/h (2 Bft) 95,74 %
27.02.2023 18:00 3,2 C 1,9 C -1,6 C 71 % 1029,6 hPa 0,0 l/m 0,00 h 0,00 h 7 W/m 7,7 km/h (2 Bft) 97,69 %
27.02.2023 19:00 2,0 C 0,5 C -2,8 C 76 % 1030,1 hPa 0,0 l/m 0,00 h 0,00 h 0 W/m 4,3 km/h (1 Bft) 96,05 %
27.02.2023 20:00 1,2 C 0,1 C -3,5 C 78 % 1030,2 hPa 0,0 l/m 0,00 h 0,00 h 0 W/m 1,8 km/h (1 Bft) 94,79 %
27.02.2023 21:00 0,6 C -0,2 C -3,9 C 79 % 1030,2 hPa 0,0 l/m 0,00 h 0,00 h 0 W/m 4,4 km/h (1 Bft) 95,14 %
27.02.2023 22:00 0,5 C -0,8 C -4,2 C 81 % 1030,2 hPa 0,0 l/m 0,00 h 0,00 h 0 W/m 3,8 km/h (1 Bft) 98,01 %
27.02.2023 23:00 -0,0 C -1,4 C -4,7 C 83 % 1030,3 hPa 0,0 l/m 0,00 h 0,00 h 0 W/m 2,9 km/h (1 Bft) 97,54 %
28.02.2023 00:00 -0,4 C -1,6 C -5,0 C 85 % 1030,6 hPa 0,0 l/m 0,00 h 0,00 h 0 W/m 3,5 km/h (1 Bft) 96,12 %
28.02.2023 01:00 -0,7 C -2,0 C -5,2 C 86 % 1030,7 hPa 0,0 l/m 0,00 h 0,00 h 0 W/m 3,0 km/h (1 Bft) 95,75 %
28.02.2023 02:00 -1,2 C -2,2 C -5,6 C 87 % 1030,8 hPa 0,0 l/m 0,00 h 0,00 h 0 W/m 3,3 km/h (1 Bft) 97,42 %
28.02.2023 03:00 -1,3 C -2,4 C -5,7 C 88 % 1030,5 hPa 0,0 l/m 0,00 h 0,00 h 0 W/m 4,5 km/h (1 Bft) 96,56 %
28.02.2023 04:00 -1,9 C -3,3 C -6,6 C 88 % 1030,4 hPa 0,0 l/m 0,00 h 0,00 h 0 W/m 0,9 km/h (0 Bft) 92,15 %
28.02.2023 05:00 -2,4 C -3,3 C -6,3 C 89 % 1030,5 hPa 0,0 l/m 0,00 h 0,00 h 0 W/m 3,8 km/h (1 Bft) 97,74 %
28.02.2023 06:00 -2,3 C -3,3 C -6,7 C 89 % 1030,7 hPa 0,0 l/m 0,00 h 0,00 h 0 W/m 3,5 km/h (1 Bft) 97,03 %
28.02.2023 07:00 -2,3 C -3,2 C -6,4 C 88 % 1031,1 hPa 0,0 l/m 0,00 h 0,00 h 11 W/m 5,1 km/h (1 Bft) 97,43 %
28.02.2023 08:00 -1,8 C -2,0 C -5,6 C 87 % 1031,4 hPa 0,0 l/m 0,17 h 0,00 h 58 W/m 7,3 km/h (2 Bft) 88,21 %
28.02.2023 09:00 0,8 C 5,8 C -3,5 C 79 % 1031,7 hPa 0,0 l/m 0,67 h 0,00 h 178 W/m 9,5 km/h (2 Bft) 72,29 %
28.02.2023 10:00 3,5 C 12,8 C -0,8 C 64 % 1031,6 hPa 0,0 l/m 0,80 h 0,00 h 326 W/m 13,0 km/h (3 Bft) 95,03 %
28.02.2023 11:00 4,9 C 13,1 C 3,6 C 57 % 1031,4 hPa 0,0 l/m 0,73 h 0,00 h 441 W/m 18,6 km/h (3 Bft) 95,80 %
28.02.2023 12:00 4,2 C 7,6 C 1,0 C 59 % 1031,1 hPa 0,0 l/m 0,37 h 0,00 h 290 W/m 16,2 km/h (3 Bft) 99,24 %
28.02.2023 13:00 5,6 C 15,0 C 1,5 C 56 % 1030,8 hPa 0,0 l/m 0,93 h 0,00 h 558 W/m 15,7 km/h (3 Bft) 98,05 %
28.02.2023 14:00 6,1 C 11,3 C 1,6 C 54 % 1030,1 hPa 0,0 l/m 1,00 h 0,00 h 490 W/m 15,8 km/h (3 Bft) 95,22 %
28.02.2023 15:00 6,1 C 9,3 C 1,6 C 56 % 1029,7 hPa 0,0 l/m 1,00 h 0,00 h 372 W/m 15,1 km/h (3 Bft) 97,17 %
28.02.2023 16:00 5,3 C 5,2 C 0,4 C 59 % 1029,4 hPa 0,0 l/m 0,63 h 0,00 h 165 W/m 14,3 km/h (3 Bft) 94,01 %
28.02.2023 17:00 4,2 C 3,4 C -0,5 C 65 % 1029,5 hPa 0,0 l/m 0,00 h 0,00 h 23 W/m 11,8 km/h (2 Bft) 95,90 %
28.02.2023 18:00 2,9 C 1,7 C -1,9 C 70 % 1030,0 hPa 0,0 l/m 0,00 h 0,00 h 7 W/m 7,4 km/h (2 Bft) 96,57 %
28.02.2023 19:00 1,9 C 0,6 C -2,8 C 73 % 1030,3 hPa 0,0 l/m 0,00 h 0,00 h 0 W/m 4,9 km/h (1 Bft) 99,72 %
28.02.2023 20:00 1,1 C -0,4 C -3,9 C 75 % 1030,5 hPa 0,0 l/m 0,00 h 0,00 h 0 W/m 2,2 km/h (1 Bft) 95,35 %
28.02.2023 21:00 0,4 C -1,0 C -4,6 C 76 % 1030,7 hPa 0,0 l/m 0,00 h 0,00 h 0 W/m 1,7 km/h (1 Bft) 95,59 %
28.02.2023 22:00 -0,1 C -1,1 C -4,5 C 79 % 1030,6 hPa 0,0 l/m 0,00 h 0,00 h 0 W/m 3,6 km/h (1 Bft) 98,26 %
28.02.2023 23:00 -0,3 C -1,4 C -4,9 C 81 % 1030,6 hPa 0,0 l/m 0,00 h 0,00 h 0 W/m 3,8 km/h (1 Bft) 97,15 %
01.03.2023 00:00 -0,7 C -2,0 C -5,4 C 82 % 1030,7 hPa 0,0 l/m 0,00 h 0,00 h 0 W/m 2,3 km/h (1 Bft) 92,10 %
01.03.2023 01:00 -1,2 C -2,3 C -5,7 C 83 % 1030,8 hPa 0,0 l/m 0,00 h 0,00 h 0 W/m 2,6 km/h (1 Bft) 95,74 %
01.03.2023 02:00 -1,7 C -2,8 C -6,1 C 84 % 1030,3 hPa 0,0 l/m 0,00 h 0,00 h 0 W/m 2,8 km/h (1 Bft) 97,49 %
01.03.2023 03:00 -2,2 C -3,3 C -6,7 C 86 % 1029,9 hPa 0,0 l/m 0,00 h 0,00 h 0 W/m 1,4 km/h (1 Bft) 97,99 %
01.03.2023 04:00 -2,5 C -3,4 C -6,7 C 87 % 1029,7 hPa 0,0 l/m 0,00 h 0,00 h 0 W/m 3,8 km/h (1 Bft) 94,15 %
01.03.2023 05:00 -2,9 C -3,9 C -7,2 C 87 % 1029,3 hPa 0,0 l/m 0,00 h 0,00 h 0 W/m 1,7 km/h (1 Bft) 98,54 %
01.03.2023 06:00 -3,1 C -3,9 C -7,2 C 89 % 1029,1 hPa 0,0 l/m 0,00 h 0,00 h 0 W/m 4,6 km/h (1 Bft) 96,31 %
01.03.2023 07:00 -3,0 C -3,9 C -7,1 C 89 % 1028,9 hPa 0,0 l/m 0,00 h 0,00 h 12 W/m 5,5 km/h (1 Bft) 97,27 %
01.03.2023 08:00 -2,6 C -2,6 C -6,3 C 89 % 1028,8 hPa 0,0 l/m 0,20 h 0,00 h 62 W/m 6,2 km/h (2 Bft) 94,41 %
01.03.2023 09:00 0,1 C 5,2 C -4,2 C 84 % 1028,7 hPa 0,0 l/m 0,73 h 0,00 h 184 W/m 9,7 km/h (2 Bft) 98,93 %
01.03.2023 10:00 3,3 C 12,4 C -1,0 C 73 % 1028,4 hPa 0,0 l/m 0,80 h 0,00 h 320 W/m 10,1 km/h (2 Bft) 98,03 %
01.03.2023 11:00 5,2 C 15,6 C 4,5 C 65 % 1027,9 hPa 0,0 l/m 0,97 h 0,00 h 471 W/m 14,2 km/h (3 Bft) 94,29 %
01.03.2023 12:00 5,6 C 9,5 C 2,6 C 62 % 1027,2 hPa 0,0 l/m 0,43 h 0,00 h 279 W/m 13,9 km/h (3 Bft) 96,27 %
01.03.2023 13:00 7,4 C 16,7 C 2,8 C 56 % 1026,7 hPa 0,0 l/m 1,00 h 0,00 h 558 W/m 12,1 km/h (2 Bft) 98,95 %
01.03.2023 14:00 8,0 C 12,1 C 3,0 C 54 % 1026,0 hPa 0,0 l/m 1,00 h 0,00 h 493 W/m 20,7 km/h (4 Bft) 99,36 %
01.03.2023 15:00 7,7 C 10,6 C 2,9 C 55 % 1025,3 hPa 0,0 l/m 1,00 h 0,00 h 378 W/m 18,0 km/h (3 Bft) 94,94 %
01.03.2023 16:00 6,8 C 6,8 C 1,8 C 58 % 1024,7 hPa 0,0 l/m 0,63 h 0,00 h 172 W/m 14,7 km/h (3 Bft) 97,49 %
01.03.2023 17:00 5,6 C 4,8 C 0,7 C 62 % 1024,5 hPa 0,0 l/m 0,00 h 0,00 h 23 W/m 10,9 km/h (2 Bft) 96,80 %
01.03.2023 18:00 4,2 C 2,9 C -0,6 C 66 % 1024,7 hPa 0,0 l/m 0,00 h 0,00 h 7 W/m 7,0 km/h (2 Bft) 91,66 %
01.03.2023 19:00 3,2 C 2,2 C -1,7 C 69 % 1024,7 hPa 0,0 l/m 0,00 h 0,00 h 0 W/m 8,6 km/h (2 Bft) 97,36 %
01.03.2023 20:00 2,7 C 1,5 C -2,0 C 70 % 1024,4 hPa 0,0 l/m 0,00 h 0,00 h 0 W/m 7,0 km/h (2 Bft) 96,85 %
01.03.2023 21:00 2,0 C 0,9 C -2,8 C 72 % 1024,5 hPa 0,0 l/m 0,00 h 0,00 h 0 W/m 5,1 km/h (1 Bft) 95,73 %
01.03.2023 22:00 1,8 C 0,6 C -2,9 C 73 % 1024,4 hPa 0,0 l/m 0,00 h 0,00 h 0 W/m 6,3 km/h (2 Bft) 97,97 %
01.03.2023 23:00 1,0 C -0,3 C -3,9 C 76 % 1024,2 hPa 0,0 l/m 0,00 h 0,00 h 0 W/m 4,7 km/h (1 Bft) 95,85 %
02.03.2023 00:00 0,4 C -0,9 C -4,2 C 79 % 1024,2 hPa 0,0 l/m 0,00 h 0,00 h 0 W/m 5,2 km/h (1 Bft) 96,41 %
02.03.2023 01:00 0,1 C -1,1 C -4,4 C 80 % 1024,2 hPa 0,0 l/m 0,00 h 0,00 h 0 W/m 3,5 km/h (1 Bft) 97,79 %
02.03.2023 02:00 -0,3 C -1,7 C -5,0 C 80 % 1023,9 hPa 0,0 l/m 0,00 h 0,00 h 0 W/m 1,5 km/h (1 Bft) 94,80 %
02.03.2023 03:00 -0,9 C -1,9 C -5,5 C 81 % 1023,6 hPa 0,0 l/m 0,00 h 0,00 h 0 W/m 2,2 km/h (1 Bft) 94,91 %
02.03.2023 04:00 -1,0 C -1,8 C -5,1 C 83 % 1023,4 hPa 0,0 l/m 0,00 h 0,00 h 0 W/m 5,1 km/h (1 Bft) 96,35 %
02.03.2023 05:00 -0,8 C -1,6 C -5,0 C 81 % 1023,4 hPa 0,0 l/m 0,00 h 0,00 h 0 W/m 6,0 km/h (2 Bft) 98,87 %
02.03.2023 06:00 -0,7 C -1,7 C -5,0 C 80 % 1023,2 hPa 0,0 l/m 0,00 h 0,00 h 0 W/m 6,5 km/h (2 Bft) 94,12 %
02.03.2023 07:00 -0,7 C -1,7 C -5,0 C 80 % 1023,3 hPa 0,0 l/m 0,00 h 0,00 h 12 W/m 6,2 km/h (2 Bft) 95,72 %
02.03.2023 08:00 -0,2 C -0,4 C -4,4 C 80 % 1023,4 hPa 0,0 l/m 0,17 h 0,00 h 58 W/m 8,3 km/h (2 Bft) 90,68 %
02.03.2023 09:00 2,1 C 6,7 C -2,3 C 74 % 1023,6 hPa 0,0 l/m 0,87 h 0,00 h 187 W/m 12,0 km/h (2 Bft) 90,66 %
02.03.2023 10:00 4,5 C 13,5 C 0,7 C 66 % 1023,3 hPa 0,0 l/m 0,87 h 0,00 h 326 W/m 14,4 km/h (3 Bft) 96,01 %
02.03.2023 11:00 7,1 C 16,5 C 7,0 C 58 % 1023,1 hPa 0,0 l/m 1,00 h 0,00 h 479 W/m 14,5 km/h (3 Bft) 97,72 %
02.03.2023 12:00 8,0 C 10,9 C 5,2 C 55 % 1022,8 hPa 0,0 l/m 0,47 h 0,00 h 292 W/m 13,8 km/h (3 Bft) 97,74 %
02.03.2023 13:00 9,9 C 18,5 C 5,2 C 52 % 1022,3 hPa 0,0 l/m 1,00 h 0,00 h 553 W/m 14,6 km/h (3 Bft) 96,94 %
02.03.2023 14:00 10,6 C 14,5 C 5,7 C 50 % 1021,6 hPa 0,0 l/m 1,00 h 0,00 h 493 W/m 16,2 km/h (3 Bft) 98,37 %
02.03.2023 15:00 11,1 C 13,9 C 6,0 C 49 % 1021,2 hPa 0,0 l/m 1,00 h 0,00 h 381 W/m 15,5 km/h (3 Bft) 97,87 %
02.03.2023 16:00 10,4 C 10,3 C 4,9 C 51 % 1021,0 hPa 0,0 l/m 0,63 h 0,00 h 175 W/m 15,2 km/h (3 Bft) 96,52 %
02.03.2023 17:00 8,9 C 8,0 C 3,8 C 57 % 1021,1 hPa 0,0 l/m 0,00 h 0,00 h 25 W/m 14,6 km/h (3 Bft) 96,80 %
02.03.2023 18:00 7,4 C 6,0 C 2,0 C 63 % 1021,6 hPa 0,0 l/m 0,00 h 0,00 h 7 W/m 8,4 km/h (2 Bft) 97,84 %
02.03.2023 19:00 5,9 C 4,5 C 0,7 C 70 % 1022,4 hPa 0,0 l/m 0,00 h 0,00 h 0 W/m 8,3 km/h (2 Bft) 95,79 %
02.03.2023 20:00 4,9 C 3,6 C -0,1 C 79 % 1022,9 hPa 0,0 l/m 0,00 h 0,00 h 0 W/m 7,5 km/h (2 Bft) 98,08 %
02.03.2023 21:00 3,6 C 2,5 C -1,2 C 82 % 1023,2 hPa 0,0 l/m 0,00 h 0,00 h 0 W/m 8,4 km/h (2 Bft) 96,33 %
02.03.2023 22:00 2,5 C 1,2 C -2,2 C 86 % 1023,4 hPa 0,0 l/m 0,00 h 0,00 h 0 W/m 7,0 km/h (2 Bft) 96,42 %
02.03.2023 23:00 1,6 C 0,5 C -2,9 C 89 % 1023,3 hPa 0,0 l/m 0,00 h 0,00 h 0 W/m 6,5 km/h (2 Bft) 95,39 %
03.03.2023 00:00 0,9 C 0,0 C -3,3 C 91 % 1023,6 hPa 0,0 l/m 0,00 h 0,00 h 0 W/m 9,8 km/h (2 Bft) 98,50 %
03.03.2023 01:00 0,8 C 0,4 C -3,0 C 93 % 1023,7 hPa 0,0 l/m 0,00 h 0,00 h 0 W/m 11,4 km/h (2 Bft) 94,73 %
03.03.2023 02:00 0,9 C 0,6 C -2,8 C 93 % 1024,0 hPa 0,0 l/m 0,00 h 0,00 h 0 W/m 11,9 km/h (2 Bft) 97,37 %
03.03.2023 03:00 0,9 C 0,6 C -2,8 C 93 % 1023,9 hPa 0,0 l/m 0,00 h 0,00 h 0 W/m 13,0 km/h (3 Bft) 97,00 %
03.03.2023 04:00 0,8 C 0,4 C -3,2 C 93 % 1024,2 hPa 0,0 l/m 0,00 h 0,00 h 0 W/m 12,0 km/h (2 Bft) 98,80 %
03.03.2023 05:00 0,6 C 0,0 C -3,3 C 93 % 1024,3 hPa 0,0 l/m 0,00 h 0,00 h 0 W/m 10,5 km/h (2 Bft) 95,04 %
03.03.2023 06:00 0,6 C 0,0 C -3,3 C 93 % 1024,6 hPa 0,0 l/m 0,00 h 0,00 h 0 W/m 11,4 km/h (2 Bft) 99,37 %
03.03.2023 07:00 0,4 C 0,0 C -3,3 C 93 % 1024,9 hPa 0,0 l/m 0,00 h 0,00 h 7 W/m 9,8 km/h (2 Bft) 95,35 %
03.03.2023 08:00 0,6 C 0,5 C -3,0 C 93 % 1025,4 hPa 0,0 l/m 0,00 h 0,00 h 29 W/m 9,4 km/h (2 Bft) 95,05 %
03.03.2023 09:00 1,1 C 1,1 C -2,3 C 92 % 1026,0 hPa 0,0 l/m 0,00 h 0,00 h 52 W/m 10,5 km/h (2 Bft) 96,60 %
03.03.2023 10:00 1,6 C 1,9 C -1,9 C 90 % 1026,4 hPa 0,0 l/m 0,00 h 0,00 h 76 W/m 9,1 km/h (2 Bft) 78,76 %
03.03.2023 11:00 2,2 C 2,8 C -1,2 C 88 % 1026,7 hPa 0,0 l/m 0,00 h 0,00 h 119 W/m 9,0 km/h (2 Bft) 75,07 %
03.03.2023 12:00 2,7 C 3,2 C -0,8 C 86 % 1026,7 hPa 0,0 l/m 0,00 h 0,00 h 138 W/m 9,5 km/h (2 Bft) 95,20 %
03.03.2023 13:00 3,3 C 4,1 C -0,2 C 85 % 1026,3 hPa 0,0 l/m 0,00 h 0,00 h 159 W/m 8,4 km/h (2 Bft) 97,68 %
03.03.2023 14:00 3,8 C 4,7 C 0,3 C 83 % 1026,2 hPa 0,0 l/m 0,13 h 0,00 h 186 W/m 9,4 km/h (2 Bft) 96,33 %
03.03.2023 15:00 5,1 C 7,8 C 1,1 C 79 % 1025,8 hPa 0,0 l/m 0,97 h 0,00 h 312 W/m 8,9 km/h (2 Bft) 95,84 %
03.03.2023 16:00 5,7 C 6,3 C 1,1 C 77 % 1025,3 hPa 0,0 l/m 0,80 h 0,00 h 181 W/m 9,3 km/h (2 Bft) 98,00 %
03.03.2023 17:00 5,6 C 5,3 C 1,1 C 78 % 1025,1 hPa 0,0 l/m 0,60 h 0,00 h 61 W/m 8,5 km/h (2 Bft) 97,36 %
03.03.2023 18:00 4,9 C 3,2 C -0,5 C 80 % 1025,5 hPa 0,0 l/m 0,10 h 0,00 h 11 W/m 3,8 km/h (1 Bft) 96,97 %
03.03.2023 19:00 3,5 C 1,4 C -2,4 C 82 % 1025,8 hPa 0,0 l/m 0,00 h 0,00 h 0 W/m 1,1 km/h (0 Bft) 96,22 %
03.03.2023 20:00 3,0 C 2,7 C -1,1 C 88 % 1026,1 hPa 0,0 l/m 0,00 h 0,00 h 0 W/m 1,6 km/h (1 Bft) 98,81 %
03.03.2023 21:00 3,4 C 3,0 C -0,6 C 88 % 1026,2 hPa 0,0 l/m 0,00 h 0,00 h 0 W/m 1,0 km/h (0 Bft) 95,55 %
03.03.2023 22:00 4,1 C 3,6 C -0,3 C 87 % 1026,4 hPa 0,0 l/m 0,00 h 0,00 h 0 W/m 3,1 km/h (1 Bft) 96,92 %
03.03.2023 23:00 4,1 C 3,3 C -0,6 C 86 % 1026,4 hPa 0,0 l/m 0,00 h 0,00 h 0 W/m 3,4 km/h (1 Bft) 96,56 %
04.03.2023 00:00 3,9 C 3,3 C -0,2 C 85 % 1026,4 hPa 0,0 l/m 0,00 h 0,00 h 0 W/m 3,2 km/h (1 Bft) 98,15 %
04.03.2023 01:00 4,1 C 3,3 C -0,1 C 84 % 1026,3 hPa 0,0 l/m 0,00 h 0,00 h 0 W/m 2,7 km/h (1 Bft) 95,67 %
04.03.2023 02:00 4,0 C 3,3 C -0,0 C 84 % 1026,0 hPa 0,0 l/m 0,00 h 0,00 h 0 W/m 3,6 km/h (1 Bft) 97,14 %
04.03.2023 03:00 4,1 C 3,3 C 0,0 C 85 % 1025,6 hPa 0,0 l/m 0,00 h 0,00 h 0 W/m 5,6 km/h (1 Bft) 97,46 %
04.03.2023 04:00 4,2 C 3,8 C 0,0 C 84 % 1025,3 hPa 0,0 l/m 0,00 h 0,00 h 0 W/m 7,8 km/h (2 Bft) 96,85 %
04.03.2023 05:00 4,3 C 3,9 C 0,0 C 84 % 1025,1 hPa 0,0 l/m 0,00 h 0,00 h 0 W/m 9,7 km/h (2 Bft) 97,60 %
04.03.2023 06:00 4,3 C 3,9 C 0,0 C 84 % 1025,2 hPa 0,0 l/m 0,00 h 0,00 h 0 W/m 12,1 km/h (2 Bft) 97,46 %
04.03.2023 07:00 4,3 C 3,9 C 0,0 C 84 % 1025,4 hPa 0,0 l/m 0,00 h 0,00 h 8 W/m 9,9 km/h (2 Bft) 97,31 %
04.03.2023 08:00 4,5 C 4,1 C 0,4 C 85 % 1025,7 hPa 0,0 l/m 0,00 h 0,00 h 33 W/m 10,0 km/h (2 Bft) 97,13 %
04.03.2023 09:00 5,1 C 5,8 C 1,3 C 86 % 1025,9 hPa 0,0 l/m 0,30 h 0,13 h 145 W/m 11,2 km/h (2 Bft) 97,44 %
04.03.2023 10:00 6,0 C 7,6 C 2,6 C 86 % 1025,9 hPa 0,0 l/m 0,50 h 0,00 h 219 W/m 14,9 km/h (3 Bft) 97,15 %
04.03.2023 11:00 7,0 C 8,7 C 4,1 C 82 % 1025,5 hPa 0,0 l/m 0,43 h 0,00 h 256 W/m 16,1 km/h (3 Bft) 98,36 %
04.03.2023 12:00 7,2 C 7,9 C 3,8 C 82 % 1025,2 hPa 0,0 l/m 0,27 h 0,00 h 204 W/m 15,9 km/h (3 Bft) 97,01 %
04.03.2023 13:00 7,3 C 7,4 C 3,6 C 82 % 1024,5 hPa 0,0 l/m 0,00 h 0,00 h 166 W/m 14,7 km/h (3 Bft) 95,37 %
04.03.2023 14:00 7,4 C 7,1 C 3,3 C 83 % 1023,9 hPa 0,0 l/m 0,00 h 0,00 h 91 W/m 15,0 km/h (3 Bft) 98,86 %
04.03.2023 15:00 7,3 C 6,9 C 3,1 C 84 % 1023,4 hPa 0,0 l/m 0,00 h 0,00 h 54 W/m 12,1 km/h (2 Bft) 93,14 %
04.03.2023 16:00 7,1 C 6,5 C 3,0 C 87 % 1022,9 hPa 0,0 l/m 0,00 h 0,00 h 31 W/m 14,5 km/h (3 Bft) 97,53 %
04.03.2023 17:00 6,7 C 6,1 C 2,6 C 86 % 1022,9 hPa 0,0 l/m 0,00 h 0,00 h 17 W/m 14,1 km/h (3 Bft) 96,94 %
04.03.2023 18:00 6,4 C 5,7 C 2,2 C 84 % 1023,0 hPa 0,0 l/m 0,00 h 0,00 h 7 W/m 11,2 km/h (2 Bft) 94,37 %
04.03.2023 19:00 6,2 C 5,6 C 2,1 C 80 % 1023,0 hPa 0,0 l/m 0,00 h 0,00 h 0 W/m 13,4 km/h (3 Bft) 95,96 %
04.03.2023 20:00 6,0 C 5,4 C 1,7 C 80 % 1023,2 hPa 0,0 l/m 0,00 h 0,00 h 0 W/m 10,9 km/h (2 Bft) 98,01 %
04.03.2023 21:00 5,9 C 5,4 C 1,7 C 81 % 1023,1 hPa 0,0 l/m 0,00 h 0,00 h 0 W/m 15,9 km/h (3 Bft) 96,04 %
04.03.2023 22:00 5,4 C 4,7 C 1,1 C 83 % 1023,1 hPa 0,0 l/m 0,00 h 0,00 h 0 W/m 14,1 km/h (3 Bft) 97,60 %
04.03.2023 23:00 4,9 C 4,3 C 0,6 C 85 % 1022,8 hPa 0,0 l/m 0,00 h 0,00 h 0 W/m 13,3 km/h (3 Bft) 97,39 %
05.03.2023 00:00 4,5 C 3,9 C 0,6 C 86 % 1022,7 hPa 0,0 l/m 0,00 h 0,00 h 0 W/m 7,2 km/h (2 Bft) 95,70 %
05.03.2023 01:00 4,3 C 3,6 C 0,0 C 87 % 1022,3 hPa 0,0 l/m 0,00 h 0,00 h 0 W/m 5,3 km/h (1 Bft) 93,76 %
05.03.2023 02:00 3,9 C 3,3 C 0,0 C 89 % 1021,8 hPa 0,0 l/m 0,00 h 0,00 h 0 W/m 4,9 km/h (1 Bft) 97,78 %
05.03.2023 03:00 3,8 C 3,3 C 0,0 C 90 % 1021,1 hPa 0,0 l/m 0,00 h 0,00 h 0 W/m 6,3 km/h (2 Bft) 99,16 %
05.03.2023 04:00 3,5 C 2,8 C -0,5 C 91 % 1020,4 hPa 0,0 l/m 0,00 h 0,25 h 0 W/m 4,5 km/h (1 Bft) 95,92 %
05.03.2023 05:00 3,3 C 2,8 C -0,6 C 92 % 1019,8 hPa 0,0 l/m 0,00 h 0,00 h 0 W/m 3,9 km/h (1 Bft) 98,49 %
05.03.2023 06:00 3,2 C 2,7 C -0,6 C 92 % 1019,3 hPa 0,0 l/m 0,00 h 0,00 h 0 W/m 2,6 km/h (1 Bft) 95,30 %
05.03.2023 07:00 3,1 C 2,6 C -0,6 C 92 % 1019,1 hPa 0,0 l/m 0,00 h 0,00 h 11 W/m 3,3 km/h (1 Bft) 94,98 %
05.03.2023 08:00 3,3 C 3,0 C -0,1 C 92 % 1018,9 hPa 0,0 l/m 0,00 h 0,00 h 34 W/m 4,8 km/h (1 Bft) 97,10 %
05.03.2023 09:00 3,9 C 4,1 C 0,6 C 92 % 1018,5 hPa 0,0 l/m 0,00 h 0,00 h 106 W/m 10,6 km/h (2 Bft) 97,09 %
05.03.2023 10:00 4,2 C 4,3 C 0,9 C 91 % 1018,1 hPa 0,0 l/m 0,07 h 0,00 h 153 W/m 14,0 km/h (3 Bft) 95,38 %
05.03.2023 11:00 4,9 C 5,8 C 2,0 C 90 % 1017,6 hPa 0,0 l/m 0,33 h 0,00 h 229 W/m 11,1 km/h (2 Bft) 96,51 %
05.03.2023 12:00 5,3 C 5,5 C 1,8 C 87 % 1017,0 hPa 0,0 l/m 0,00 h 0,10 h 167 W/m 10,4 km/h (2 Bft) 96,89 %
05.03.2023 13:00 5,7 C 6,1 C 2,4 C 83 % 1016,2 hPa 0,0 l/m 0,00 h 0,00 h 173 W/m 9,8 km/h (2 Bft) 96,63 %
05.03.2023 14:00 6,0 C 6,4 C 2,6 C 82 % 1015,2 hPa 0,0 l/m 0,03 h 0,00 h 174 W/m 8,8 km/h (2 Bft) 99,37 %
05.03.2023 15:00 5,8 C 5,4 C 1,9 C 82 % 1014,4 hPa 0,0 l/m 0,00 h 0,00 h 66 W/m 6,7 km/h (2 Bft) 94,28 %
05.03.2023 16:00 5,4 C 5,0 C 1,7 C 84 % 1013,6 hPa 0,0 l/m 0,00 h 0,00 h 52 W/m 4,5 km/h (1 Bft) 98,72 %
05.03.2023 17:00 5,3 C 4,5 C 1,3 C 85 % 1012,9 hPa 0,0 l/m 0,00 h 0,00 h 16 W/m 3,4 km/h (1 Bft) 97,60 %
05.03.2023 18:00 4,9 C 4,2 C 1,0 C 86 % 1012,5 hPa 0,0 l/m 0,00 h 0,03 h 4 W/m 5,5 km/h (1 Bft) 92,49 %
05.03.2023 19:00 4,5 C 3,8 C 0,6 C 87 % 1012,3 hPa 0,0 l/m 0,00 h 0,00 h 0 W/m 6,3 km/h (2 Bft) 97,08 %
05.03.2023 20:00 4,1 C 3,3 C 0,2 C 88 % 1011,8 hPa 0,0 l/m 0,00 h 0,00 h 0 W/m 6,4 km/h (2 Bft) 97,87 %
05.03.2023 21:00 3,8 C 3,2 C -0,1 C 90 % 1011,4 hPa 0,0 l/m 0,00 h 0,13 h 0 W/m 8,0 km/h (2 Bft) 95,04 %
05.03.2023 22:00 3,4 C 2,8 C -0,6 C 93 % 1010,8 hPa 0,2 l/m 0,00 h 0,07 h 0 W/m 3,6 km/h (1 Bft) 95,85 %
05.03.2023 23:00 3,3 C 2,8 C -0,6 C 94 % 1010,1 hPa 0,0 l/m 0,00 h 0,03 h 0 W/m 6,3 km/h (2 Bft) 97,53 %
Min-Datum _ 27.02.23 27.02.23 27.02.23 02.03.23 05.03.23 - - - - 27.02.23 05.03.23
_ Min-Zeit 07:32 06:38 06:38 15:34 23:56 - - - - 00:00 01:54
Minimum _ -4,2 C -5,0 C -7,8 C 48 % 1009,8 hPa - - - - 0,0 km/h (0 Bft) 2,86 %
Max-Datum _ 02.03.23 02.03.23 02.03.23 27.02.23 28.02.23 05.03.23 04.03.23 05.03.23 27.02.23 28.02.23 27.02.23
_ Max-Zeit 15:56 13:14 11:20 09:06 09:20 22:06 12:12 04:02 12:54 11:18 00:00
Maximum _ 11,3 C 21,1 C 8,3 C 94 % 1031,7 hPa 0,2 l/m 0,07 h 0,08 h 706 W/m 35,4 km/h
W-NW (5 Bft)
100,00 %
Durchschnitt _ 3,0 C 3,5 C -1,2 C 80 % 1025,2 hPa #0,2 l/m #30:34 h #45 min. 184 W/m 8,2 km/h (2 Bft) 96,00 %
© 2023 W. Hausmann